Time;durP1;ratioP1;P1;durP2;ratioP2;P2;SDS_P1;SDS_P2;PMS_P1;PMS_P2;Temp;Humidity;BMP_temperature;BMP_pressure;BME280_temperature;BME280_humidity;BME280_pressure;Samples;Min_cycle;Max_cycle;Signal;HPM_P1;HPM_P2
2021/07/22 00:00:37;;;;;;;20.67;10.40;;;18.00;97.30;;;;;;5014015;28;20232;-83
2021/07/22 00:03:03;;;;;;;23.17;11.30;;;18.00;97.30;;;;;;5014120;28;20196;-83
2021/07/22 00:05:28;;;;;;;18.20;10.90;;;18.00;97.30;;;;;;5013698;28;20189;-84
2021/07/22 00:07:59;;;;;;;20.17;10.80;;;18.00;97.30;;;;;;5013718;28;20234;-83
2021/07/22 00:10:25;;;;;;;17.03;10.00;;;18.00;97.30;;;;;;5013910;28;20186;-83
2021/07/22 00:12:50;;;;;;;19.97;11.40;;;18.00;97.30;;;;;;5014136;28;20440;-84
2021/07/22 00:15:16;;;;;;;18.43;10.97;;;18.00;97.30;;;;;;5013473;28;20208;-83
2021/07/22 00:17:41;;;;;;;23.93;12.93;;;18.00;97.30;;;;;;5013702;28;20181;-83
2021/07/22 00:20:07;;;;;;;20.30;10.97;;;18.00;97.30;;;;;;5013864;28;20208;-84
2021/07/22 00:22:38;;;;;;;21.40;10.47;;;18.00;97.30;;;;;;5012863;28;20224;-83
2021/07/22 00:25:07;;;;;;;20.30;11.40;;;18.00;97.30;;;;;;5011390;28;20929;-83
2021/07/22 00:27:33;;;;;;;23.13;11.60;;;18.00;97.30;;;;;;4993708;28;20492;-83
2021/07/22 00:29:59;;;;;;;22.77;12.33;;;18.00;97.30;;;;;;5007377;28;20458;-84
2021/07/22 00:32:24;;;;;;;25.53;11.77;;;18.00;97.30;;;;;;5013429;28;20293;-83
2021/07/22 00:34:50;;;;;;;19.93;11.77;;;17.90;97.30;;;;;;5013387;28;20220;-83
2021/07/22 00:37:16;;;;;;;21.00;11.60;;;17.90;97.30;;;;;;5013259;28;20180;-83
2021/07/22 00:39:41;;;;;;;19.00;10.40;;;17.90;97.30;;;;;;5013309;28;20209;-84
2021/07/22 00:42:07;;;;;;;18.20;11.27;;;17.90;97.30;;;;;;5012773;28;20228;-84
2021/07/22 00:44:33;;;;;;;20.43;11.00;;;17.90;97.30;;;;;;5013002;28;20177;-83
2021/07/22 00:46:58;;;;;;;19.87;11.73;;;17.90;97.30;;;;;;5012327;28;20205;-84
2021/07/22 00:49:24;;;;;;;21.90;11.87;;;17.90;97.30;;;;;;5013098;28;20177;-83
2021/07/22 00:51:49;;;;;;;19.33;11.57;;;17.90;97.30;;;;;;5013043;28;20205;-84
2021/07/22 00:54:15;;;;;;;21.07;11.60;;;17.80;97.30;;;;;;5012853;28;20601;-84
2021/07/22 00:56:41;;;;;;;21.23;10.67;;;17.80;97.30;;;;;;5012944;28;20589;-83
2021/07/22 00:59:06;;;;;;;19.13;10.23;;;17.80;97.30;;;;;;5014443;28;20272;-84
2021/07/22 01:01:32;;;;;;;22.43;11.90;;;17.80;97.30;;;;;;5013324;28;20448;-83
2021/07/22 01:03:58;;;;;;;21.43;11.87;;;17.80;97.30;;;;;;5013601;28;20194;-83
2021/07/22 01:06:24;;;;;;;20.43;10.87;;;17.80;97.30;;;;;;5012584;28;20211;-83
2021/07/22 01:08:49;;;;;;;20.00;10.80;;;17.80;97.30;;;;;;5011765;28;20197;-84
2021/07/22 01:11:15;;;;;;;20.70;10.73;;;17.80;97.30;;;;;;5012166;28;20205;-83
2021/07/22 01:13:41;;;;;;;21.60;10.60;;;17.80;97.30;;;;;;4995136;28;20201;-83
2021/07/22 01:16:07;;;;;;;16.33;9.97;;;17.80;97.30;;;;;;4999681;28;20424;-83
2021/07/22 01:18:32;;;;;;;21.87;11.10;;;17.80;97.30;;;;;;5012785;28;20185;-83
2021/07/22 01:20:58;;;;;;;21.17;12.07;;;17.80;97.30;;;;;;5012533;28;20291;-83
2021/07/22 01:23:24;;;;;;;18.23;10.30;;;17.70;97.30;;;;;;5012384;28;20681;-83
2021/07/22 01:25:51;;;;;;;21.00;11.50;;;17.70;97.30;;;;;;5012285;28;20295;-83
2021/07/22 01:28:17;;;;;;;20.20;11.17;;;17.70;97.30;;;;;;5012042;28;20623;-83
2021/07/22 01:30:43;;;;;;;20.37;11.03;;;17.70;97.30;;;;;;5012237;28;20467;-83
2021/07/22 01:33:08;;;;;;;22.93;12.23;;;17.70;97.30;;;;;;5000708;28;20949;-83
2021/07/22 01:35:34;;;;;;;21.87;10.70;;;17.70;97.30;;;;;;5012226;28;20185;-84
2021/07/22 01:37:59;;;;;;;18.93;10.80;;;17.70;97.30;;;;;;5011943;28;20178;-84
2021/07/22 01:40:25;;;;;;;19.43;10.77;;;17.70;97.30;;;;;;5012105;28;20565;-83
2021/07/22 01:42:51;;;;;;;23.70;11.20;;;17.70;97.30;;;;;;5012040;28;20184;-84
2021/07/22 01:45:16;;;;;;;19.80;11.60;;;17.70;97.30;;;;;;5011922;28;20177;-83
2021/07/22 01:47:42;;;;;;;19.93;12.30;;;17.70;97.30;;;;;;5012508;28;20300;-83
2021/07/22 01:50:09;;;;;;;17.37;11.17;;;17.70;97.30;;;;;;5011415;28;20181;-84
2021/07/22 01:52:35;;;;;;;22.40;11.80;;;17.70;97.30;;;;;;5006796;28;20322;-83
2021/07/22 01:55:00;;;;;;;19.33;10.60;;;17.70;97.30;;;;;;5005925;28;20457;-82
2021/07/22 01:57:26;;;;;;;20.00;10.43;;;17.70;97.30;;;;;;5002656;28;20883;-82
2021/07/22 01:59:53;;;;;;;24.67;11.37;;;17.70;97.30;;;;;;5006598;28;20182;-82
2021/07/22 02:02:18;;;;;;;22.03;11.17;;;17.70;97.30;;;;;;5011639;28;20211;-83
2021/07/22 02:04:44;;;;;;;19.50;11.03;;;17.70;97.30;;;;;;5011761;28;20811;-82
2021/07/22 02:07:10;;;;;;;20.17;11.20;;;17.70;97.30;;;;;;5010799;28;20216;-83
2021/07/22 02:09:37;;;;;;;20.57;11.30;;;17.70;97.30;;;;;;5011705;28;20187;-82
2021/07/22 02:12:03;;;;;;;22.53;12.13;;;17.70;97.30;;;;;;5011376;28;20506;-82
2021/07/22 02:14:28;;;;;;;17.63;11.27;;;17.60;97.30;;;;;;5011411;28;20412;-82
2021/07/22 02:16:54;;;;;;;20.10;11.77;;;17.60;97.30;;;;;;5011215;28;20618;-82
2021/07/22 02:19:20;;;;;;;21.43;11.70;;;17.60;97.30;;;;;;5011170;28;20591;-83
2021/07/22 02:21:45;;;;;;;20.50;10.87;;;17.60;97.30;;;;;;4999322;28;20209;-83
2021/07/22 02:24:12;;;;;;;18.70;10.47;;;17.60;97.30;;;;;;5008018;28;20181;-82
2021/07/22 02:26:38;;;;;;;22.50;12.10;;;17.60;97.30;;;;;;5010828;28;20219;-82
2021/07/22 02:29:06;;;;;;;20.47;11.87;;;17.60;97.30;;;;;;5010507;28;20425;-82
2021/07/22 02:31:31;;;;;;;20.10;10.47;;;17.60;97.30;;;;;;5010337;28;20475;-82
2021/07/22 02:33:57;;;;;;;19.60;10.70;;;17.60;97.30;;;;;;5011157;28;20486;-83
2021/07/22 02:36:23;;;;;;;22.00;11.33;;;17.60;97.30;;;;;;5011308;28;20200;-82
2021/07/22 02:38:49;;;;;;;19.07;11.20;;;17.60;97.30;;;;;;5011221;28;20272;-83
2021/07/22 02:41:14;;;;;;;15.47;9.77;;;17.60;97.30;;;;;;5011275;28;20196;-82
2021/07/22 02:43:41;;;;;;;19.60;11.43;;;17.60;97.30;;;;;;5010940;28;20501;-82
2021/07/22 02:46:07;;;;;;;21.77;10.60;;;17.60;97.30;;;;;;5010622;28;20205;-83
2021/07/22 02:48:34;;;;;;;21.50;10.07;;;17.60;97.30;;;;;;5011820;28;20428;-82
2021/07/22 02:51:04;;;;;;;21.50;10.47;;;17.60;97.30;;;;;;5012757;28;20443;-82
2021/07/22 02:53:30;;;;;;;24.13;11.50;;;17.60;97.30;;;;;;5013776;28;20427;-83
2021/07/22 02:55:57;;;;;;;19.13;10.33;;;17.60;97.30;;;;;;5013169;28;20480;-82
2021/07/22 02:58:23;;;;;;;21.93;10.00;;;17.60;97.30;;;;;;5015316;28;20490;-84
2021/07/22 03:00:49;;;;;;;19.37;10.97;;;17.60;97.30;;;;;;5011418;28;20481;-83
2021/07/22 03:03:17;;;;;;;22.47;10.70;;;17.60;97.30;;;;;;4993617;28;20186;-83
2021/07/22 03:05:43;;;;;;;18.13;9.70;;;17.50;97.30;;;;;;5000223;28;20685;-83
2021/07/22 03:08:08;;;;;;;20.07;10.43;;;17.50;97.30;;;;;;5013058;28;20459;-82
2021/07/22 03:10:34;;;;;;;19.07;10.83;;;17.50;97.30;;;;;;5011946;28;20177;-83
2021/07/22 03:12:59;;;;;;;19.30;10.70;;;17.50;97.30;;;;;;5010575;28;20173;-83
2021/07/22 03:15:25;;;;;;;17.37;10.77;;;17.50;97.30;;;;;;5010363;28;20676;-83
2021/07/22 03:17:51;;;;;;;16.37;9.90;;;17.50;97.30;;;;;;5010081;28;20216;-83
2021/07/22 03:20:17;;;;;;;16.77;10.10;;;17.40;97.30;;;;;;5009953;28;20451;-83
2021/07/22 03:22:42;;;;;;;19.50;11.50;;;17.40;97.30;;;;;;5010349;28;20223;-83
2021/07/22 03:25:08;;;;;;;26.23;11.43;;;17.40;97.30;;;;;;5010789;28;20432;-82
2021/07/22 03:27:34;;;;;;;19.60;11.27;;;17.40;97.30;;;;;;5010738;28;20472;-83
2021/07/22 03:30:00;;;;;;;19.47;10.57;;;17.40;97.30;;;;;;5010615;28;20519;-83
2021/07/22 03:32:26;;;;;;;19.57;11.40;;;17.40;97.30;;;;;;5011082;28;20201;-83
2021/07/22 03:34:51;;;;;;;19.30;10.77;;;17.40;97.30;;;;;;5010225;28;20228;-82
2021/07/22 03:37:17;;;;;;;18.23;10.27;;;17.40;97.30;;;;;;5010795;28;20280;-83
2021/07/22 03:39:43;;;;;;;23.00;10.77;;;17.40;97.30;;;;;;5011563;28;20181;-83
2021/07/22 03:42:08;;;;;;;21.00;11.30;;;17.40;97.30;;;;;;5015196;28;20691;-82
2021/07/22 03:44:35;;;;;;;22.53;10.83;;;17.40;97.30;;;;;;5014427;28;20173;-83
2021/07/22 03:47:00;;;;;;;18.60;10.57;;;17.40;97.30;;;;;;5013962;28;20197;-83
2021/07/22 03:49:26;;;;;;;21.33;9.93;;;17.40;97.30;;;;;;5013881;28;20412;-82
2021/07/22 03:51:56;;;;;;;20.07;11.33;;;17.40;97.30;;;;;;5013604;28;20203;-82
2021/07/22 03:54:22;;;;;;;24.30;11.40;;;17.40;97.30;;;;;;5014122;28;20271;-83
2021/07/22 03:56:47;;;;;;;23.30;12.07;;;17.40;97.30;;;;;;5014140;28;20537;-83
2021/07/22 03:59:19;;;;;;;17.67;10.67;;;17.40;97.30;;;;;;5013862;28;20224;-83
2021/07/22 04:01:45;;;;;;;20.47;10.93;;;17.50;97.30;;;;;;5013111;28;20208;-83
2021/07/22 04:04:10;;;;;;;19.63;10.07;;;17.50;97.30;;;;;;5014445;28;20416;-83
2021/07/22 04:06:37;;;;;;;17.80;10.10;;;17.50;97.30;;;;;;5014804;28;20295;-83
2021/07/22 04:09:06;;;;;;;19.83;11.00;;;17.50;97.30;;;;;;5013910;28;20285;-83
2021/07/22 04:11:34;;;;;;;20.63;10.43;;;17.50;97.30;;;;;;5014869;28;20519;-83
2021/07/22 04:14:00;;;;;;;19.33;10.47;;;17.50;97.30;;;;;;5014554;28;20413;-83
2021/07/22 04:16:25;;;;;;;17.67;10.20;;;17.50;97.30;;;;;;5014024;28;20494;-82
2021/07/22 04:18:51;;;;;;;20.53;11.23;;;17.50;97.30;;;;;;5013695;28;20179;-82
2021/07/22 04:21:17;;;;;;;18.40;11.30;;;17.50;97.30;;;;;;5013769;28;20284;-83
2021/07/22 04:23:45;;;;;;;19.30;10.23;;;17.50;97.30;;;;;;5013975;28;20227;-83
2021/07/22 04:26:17;;;;;;;19.30;10.90;;;17.50;97.30;;;;;;5012910;28;20756;-82
2021/07/22 04:28:43;;;;;;;19.87;10.03;;;17.60;97.30;;;;;;5013547;28;20458;-83
2021/07/22 04:31:08;;;;;;;16.47;9.67;;;17.50;97.30;;;;;;5013455;28;20471;-82
2021/07/22 04:33:35;;;;;;;23.97;11.53;;;17.60;97.30;;;;;;5013722;28;20408;-82
2021/07/22 04:36:00;;;;;;;21.83;10.77;;;17.60;97.30;;;;;;5014312;28;20235;-83
2021/07/22 04:38:26;;;;;;;23.97;10.93;;;17.60;97.30;;;;;;5013499;28;20913;-83
2021/07/22 04:40:51;;;;;;;18.77;10.37;;;17.60;97.30;;;;;;5012065;28;20201;-83
2021/07/22 04:43:17;;;;;;;19.73;11.03;;;17.60;97.30;;;;;;5011614;28;20550;-83
2021/07/22 04:45:43;;;;;;;19.50;10.37;;;17.70;97.30;;;;;;5011231;28;20177;-83
2021/07/22 04:48:11;;;;;;;20.47;9.93;;;17.70;97.30;;;;;;5012439;28;20264;-83
2021/07/22 04:50:37;;;;;;;18.90;9.97;;;17.70;97.30;;;;;;5012213;28;20174;-83
2021/07/22 04:53:02;;;;;;;17.03;9.30;;;17.70;97.30;;;;;;5012786;28;20439;-83
2021/07/22 04:55:28;;;;;;;21.03;11.30;;;17.70;97.30;;;;;;5012357;28;20184;-83
2021/07/22 04:58:00;;;;;;;21.80;11.13;;;17.80;97.30;;;;;;5013175;28;20177;-83
2021/07/22 05:00:26;;;;;;;21.97;10.90;;;17.80;97.30;;;;;;5014675;28;20551;-83
2021/07/22 05:02:58;;;;;;;23.73;11.50;;;17.80;97.30;;;;;;5013098;28;20427;-82
2021/07/22 05:05:29;;;;;;;21.40;11.63;;;17.80;97.30;;;;;;5014068;28;20455;-83
2021/07/22 05:07:54;;;;;;;21.90;12.00;;;17.90;97.30;;;;;;5012671;28;20471;-83
2021/07/22 05:10:20;;;;;;;23.07;11.23;;;17.90;97.30;;;;;;5012376;28;20918;-84
2021/07/22 05:12:46;;;;;;;21.20;11.90;;;17.90;97.30;;;;;;5012829;28;20201;-83
2021/07/22 05:15:12;;;;;;;20.00;10.80;;;17.90;97.30;;;;;;5013595;28;20177;-84
2021/07/22 05:17:38;;;;;;;17.10;11.17;;;17.90;97.30;;;;;;5012539;28;20192;-83
2021/07/22 05:20:05;;;;;;;23.93;12.03;;;18.00;97.30;;;;;;5013456;28;20439;-83
2021/07/22 05:22:31;;;;;;;22.80;12.83;;;18.00;97.30;;;;;;5012331;28;20436;-83
2021/07/22 05:24:57;;;;;;;21.20;11.60;;;18.00;97.30;;;;;;5012499;28;20793;-83
2021/07/22 05:27:23;;;;;;;19.13;11.67;;;18.00;97.30;;;;;;5013023;28;20459;-83
2021/07/22 05:29:48;;;;;;;18.07;11.17;;;18.00;97.30;;;;;;5012345;28;20315;-83
2021/07/22 05:32:14;;;;;;;20.97;11.97;;;18.00;97.30;;;;;;5012246;28;20192;-83
2021/07/22 05:34:39;;;;;;;22.30;11.90;;;18.00;97.30;;;;;;5012030;28;20623;-83
2021/07/22 05:37:07;;;;;;;20.87;12.63;;;18.00;97.30;;;;;;5012116;28;20196;-83
2021/07/22 05:39:34;;;;;;;18.60;11.40;;;18.00;97.30;;;;;;5011633;28;20208;-83
2021/07/22 05:41:59;;;;;;;20.83;12.57;;;18.10;97.30;;;;;;5012656;28;20516;-83
2021/07/22 05:44:25;;;;;;;20.00;12.60;;;18.10;97.30;;;;;;5011878;28;21116;-83
2021/07/22 05:46:50;;;;;;;20.90;12.03;;;18.10;97.30;;;;;;5012843;28;20201;-83
2021/07/22 05:49:17;;;;;;;24.37;12.50;;;18.20;97.30;;;;;;4995458;28;20197;-83
2021/07/22 05:51:43;;;;;;;23.73;12.70;;;18.20;97.30;;;;;;5012064;28;20462;-83
2021/07/22 05:54:09;;;;;;;21.07;12.83;;;18.30;97.30;;;;;;5011999;28;20203;-84
2021/07/22 05:56:36;;;;;;;21.83;12.17;;;18.30;97.30;;;;;;5011389;28;20283;-83
2021/07/22 05:59:01;;;;;;;21.27;11.70;;;18.30;97.30;;;;;;5011652;28;20452;-83
2021/07/22 06:01:27;;;;;;;21.00;12.67;;;18.30;97.30;;;;;;5011192;28;20579;-83
2021/07/22 06:03:52;;;;;;;23.67;12.10;;;18.40;97.30;;;;;;5010879;28;20177;-83
2021/07/22 06:06:18;;;;;;;20.87;11.03;;;18.40;97.30;;;;;;5011014;28;20670;-84
2021/07/22 06:08:44;;;;;;;20.10;12.30;;;18.40;97.30;;;;;;5011516;28;20173;-83
2021/07/22 06:11:12;;;;;;;21.43;11.33;;;18.50;97.30;;;;;;5011714;28;20201;-83
2021/07/22 06:13:37;;;;;;;21.90;11.17;;;18.50;97.30;;;;;;5011663;28;20185;-83
2021/07/22 06:16:07;;;;;;;23.00;11.83;;;18.60;97.30;;;;;;5011068;28;20514;-83
2021/07/22 06:18:33;;;;;;;20.20;11.80;;;18.60;97.30;;;;;;5001157;28;20181;-83
2021/07/22 06:20:58;;;;;;;22.40;11.87;;;18.60;97.30;;;;;;5011492;28;20799;-83
2021/07/22 06:23:24;;;;;;;21.90;12.53;;;18.60;97.30;;;;;;5011226;28;20550;-83
2021/07/22 06:25:58;;;;;;;18.97;11.33;;;18.70;97.30;;;;;;5011565;28;20259;-83
2021/07/22 06:28:24;;;;;;;24.00;11.17;;;18.70;97.30;;;;;;5011358;28;20208;-83
2021/07/22 06:30:53;;;;;;;23.33;11.07;;;18.70;97.30;;;;;;5011081;28;20525;-83
2021/07/22 06:33:19;;;;;;;25.67;13.30;;;18.80;97.30;;;;;;5011477;28;20264;-83
2021/07/22 06:35:45;;;;;;;26.73;10.97;;;18.80;97.30;;;;;;5011167;28;20990;-83
2021/07/22 06:38:11;;;;;;;23.53;11.93;;;18.80;97.30;;;;;;5013261;28;20449;-83
2021/07/22 06:40:37;;;;;;;26.50;12.07;;;18.80;97.30;;;;;;5011076;28;20177;-83
2021/07/22 06:43:02;;;;;;;33.80;12.03;;;18.80;97.30;;;;;;5011593;28;20416;-83
2021/07/22 06:45:28;;;;;;;21.50;12.47;;;18.90;97.30;;;;;;5011916;28;20627;-84
2021/07/22 06:47:54;;;;;;;18.80;10.77;;;18.90;97.30;;;;;;5011659;28;20197;-84
2021/07/22 06:50:19;;;;;;;22.10;11.97;;;19.00;97.30;;;;;;5014462;28;20205;-85
2021/07/22 06:52:45;;;;;;;22.80;11.60;;;19.00;97.30;;;;;;5012350;28;20205;-85
2021/07/22 06:55:11;;;;;;;26.23;12.23;;;19.00;97.30;;;;;;5011925;28;20177;-85
2021/07/22 06:57:36;;;;;;;15.57;10.50;;;19.10;97.30;;;;;;5011785;28;20251;-85
2021/07/22 07:00:06;;;;;;;22.27;12.33;;;19.20;97.30;;;;;;5011032;28;20424;-86
2021/07/22 07:02:31;;;;;;;20.90;11.37;;;19.20;97.30;;;;;;5010485;28;20197;-86
2021/07/22 07:04:57;;;;;;;22.13;11.70;;;19.30;97.30;;;;;;5011639;28;20964;-86
2021/07/22 07:07:23;;;;;;;19.00;10.00;;;19.30;97.30;;;;;;5009608;28;20292;-87
2021/07/22 07:09:48;;;;;;;16.60;10.20;;;19.40;97.30;;;;;;5011341;28;20176;-86
2021/07/22 07:12:14;;;;;;;16.10;8.87;;;19.40;97.30;;;;;;5011855;28;20207;-86
2021/07/22 07:14:40;;;;;;;15.77;9.83;;;19.40;97.30;;;;;;5012821;28;20639;-86
2021/07/22 07:17:05;;;;;;;18.17;9.40;;;19.50;97.30;;;;;;5017005;28;20177;-85
2021/07/22 07:19:31;;;;;;;20.67;9.87;;;19.50;97.30;;;;;;5015084;28;20416;-85
2021/07/22 07:21:58;;;;;;;17.57;9.90;;;19.60;97.30;;;;;;5015359;28;20205;-85
2021/07/22 07:24:23;;;;;;;17.93;10.47;;;19.60;97.30;;;;;;5015512;28;20213;-85
2021/07/22 07:26:49;;;;;;;20.50;10.63;;;19.60;97.30;;;;;;5015691;28;20467;-84
2021/07/22 07:29:14;;;;;;;25.23;10.50;;;19.70;97.30;;;;;;5014319;28;20517;-84
2021/07/22 07:31:40;;;;;;;16.50;9.30;;;19.80;97.30;;;;;;5014503;28;20194;-85
2021/07/22 07:34:06;;;;;;;17.93;9.23;;;19.80;97.30;;;;;;5016877;28;20654;-85
2021/07/22 07:36:33;;;;;;;13.10;8.50;;;19.90;97.30;;;;;;5017295;28;20177;-85
2021/07/22 07:38:58;;;;;;;19.77;10.03;;;19.90;97.30;;;;;;5017017;28;20420;-86
2021/07/22 07:41:24;;;;;;;19.70;10.00;;;20.00;97.30;;;;;;5015758;28;20463;-86
2021/07/22 07:43:50;;;;;;;18.37;9.60;;;20.10;97.30;;;;;;5016261;28;20192;-85
2021/07/22 07:46:15;;;;;;;17.17;9.83;;;20.20;97.30;;;;;;5013451;28;20307;-86
2021/07/22 07:48:41;;;;;;;18.80;9.87;;;20.20;97.30;;;;;;5014496;28;20186;-86
2021/07/22 07:51:08;;;;;;;15.50;8.93;;;20.30;97.30;;;;;;5016631;28;20247;-85
2021/07/22 07:53:35;;;;;;;16.43;9.83;;;20.30;97.30;;;;;;5016551;28;20182;-86
2021/07/22 07:56:00;;;;;;;23.73;10.43;;;20.30;97.30;;;;;;5015809;28;20988;-86
2021/07/22 07:58:26;;;;;;;16.63;9.20;;;20.40;97.30;;;;;;5015972;28;20427;-86
2021/07/22 08:00:51;;;;;;;18.93;9.10;;;20.40;97.30;;;;;;5016412;28;20570;-86
2021/07/22 08:03:18;;;;;;;15.67;9.23;;;20.50;97.30;;;;;;5015846;28;20244;-86
2021/07/22 08:05:45;;;;;;;21.20;8.43;;;20.50;97.30;;;;;;5015333;28;20173;-85
2021/07/22 08:08:11;;;;;;;21.37;9.47;;;20.60;97.30;;;;;;5015184;28;20474;-87
2021/07/22 08:10:40;;;;;;;17.33;9.30;;;20.70;97.30;;;;;;5014140;28;20452;-86
2021/07/22 08:13:07;;;;;;;15.00;8.00;;;20.70;97.30;;;;;;5014061;28;20185;-86
2021/07/22 08:15:33;;;;;;;26.57;10.07;;;20.80;97.30;;;;;;5014714;28;20418;-86
2021/07/22 08:17:58;;;;;;;12.63;7.70;;;20.80;97.30;;;;;;5014792;28;20419;-87
2021/07/22 08:20:24;;;;;;;17.63;8.40;;;20.90;97.30;;;;;;5014098;28;20173;-86
2021/07/22 08:22:49;;;;;;;15.43;8.27;;;20.90;97.30;;;;;;5014113;28;20639;-86
2021/07/22 08:25:15;;;;;;;18.57;9.87;;;21.00;97.30;;;;;;5013892;28;20312;-87
2021/07/22 08:27:41;;;;;;;14.10;8.70;;;21.10;97.30;;;;;;5013677;28;20211;-86
2021/07/22 08:30:07;;;;;;;11.87;8.37;;;21.10;97.30;;;;;;5014088;28;20239;-86
2021/07/22 08:32:32;;;;;;;17.10;9.07;;;21.10;97.00;;;;;;5013144;28;20201;-86
2021/07/22 08:34:58;;;;;;;16.40;8.90;;;21.20;96.80;;;;;;5013684;28;20512;-86
2021/07/22 08:37:23;;;;;;;13.80;9.60;;;21.20;95.80;;;;;;5014780;28;20803;-86
2021/07/22 08:39:51;;;;;;;19.67;10.70;;;21.20;96.60;;;;;;5015075;28;20185;-86
2021/07/22 08:42:17;;;;;;;17.73;9.23;;;21.30;97.30;;;;;;5014422;28;20215;-86
2021/07/22 08:44:43;;;;;;;20.03;8.90;;;21.40;97.30;;;;;;5014381;28;20921;-86
2021/07/22 08:47:10;;;;;;;26.70;8.77;;;21.40;96.40;;;;;;5014324;28;20200;-86
2021/07/22 08:49:39;;;;;;;12.10;8.40;;;21.50;96.90;;;;;;5014342;28;20470;-86
2021/07/22 08:52:09;;;;;;;18.00;9.80;;;21.60;96.80;;;;;;5014510;28;20453;-86
2021/07/22 08:54:36;;;;;;;15.27;9.00;;;21.60;95.70;;;;;;5014060;28;20428;-86
2021/07/22 08:57:06;;;;;;;13.53;8.83;;;21.70;95.20;;;;;;5014014;28;20507;-86
2021/07/22 08:59:31;;;;;;;15.10;9.50;;;21.80;95.00;;;;;;5014198;28;21154;-86
2021/07/22 09:01:59;;;;;;;22.13;9.50;;;21.90;94.60;;;;;;5014051;28;20443;-86
2021/07/22 09:04:24;;;;;;;16.77;9.63;;;21.90;94.80;;;;;;5013726;28;20185;-86
2021/07/22 09:06:50;;;;;;;16.00;9.03;;;22.00;94.70;;;;;;5013811;28;20468;-86
2021/07/22 09:09:17;;;;;;;19.87;9.40;;;22.10;97.10;;;;;;5014055;28;20181;-86
2021/07/22 09:12:00;;;;;;;14.57;9.00;;;22.20;96.60;;;;;;5013716;28;20201;-86
2021/07/22 09:14:29;;;;;;;17.70;9.47;;;22.30;97.30;;;;;;5014941;28;20408;-86
2021/07/22 09:16:56;;;;;;;17.07;8.03;;;22.40;97.10;;;;;;5013898;28;20918;-85
2021/07/22 09:19:30;;;;;;;15.93;8.40;;;22.40;92.70;;;;;;5013547;28;20522;-86
2021/07/22 09:21:56;;;;;;;16.20;9.17;;;22.40;94.40;;;;;;5014794;28;20435;-85
2021/07/22 09:24:22;;;;;;;18.13;8.93;;;22.50;95.20;;;;;;5013615;28;20944;-86
2021/07/22 09:26:50;;;;;;;18.30;9.00;;;22.60;91.80;;;;;;5013261;28;20201;-86
2021/07/22 09:29:17;;;;;;;17.00;8.60;;;22.60;91.50;;;;;;5013174;28;20231;-86
2021/07/22 09:31:43;;;;;;;17.13;9.80;;;22.60;90.00;;;;;;5013281;28;20443;-86
2021/07/22 09:34:24;;;;;;;19.33;9.50;;;22.70;90.60;;;;;;5013344;28;20519;-86
2021/07/22 09:36:50;;;;;;;17.27;10.93;;;22.70;89.10;;;;;;5012819;28;20412;-86
2021/07/22 09:39:28;;;;;;;19.30;9.63;;;22.70;88.10;;;;;;5012921;28;20420;-86
2021/07/22 09:41:57;;;;;;;20.40;9.90;;;22.60;88.60;;;;;;5013007;28;20447;-86
2021/07/22 09:44:30;;;;;;;16.23;8.97;;;22.60;88.90;;;;;;5012950;28;20416;-86
2021/07/22 09:46:57;;;;;;;16.00;9.73;;;22.50;88.80;;;;;;5013366;28;20471;-86
2021/07/22 09:49:31;;;;;;;19.00;9.93;;;22.50;89.90;;;;;;5013268;28;20412;-86
2021/07/22 09:52:01;;;;;;;18.47;10.27;;;22.40;89.30;;;;;;5013072;28;20474;-86
2021/07/22 09:54:33;;;;;;;21.73;10.17;;;22.30;88.50;;;;;;5012944;28;20515;-86
2021/07/22 09:57:02;;;;;;;17.40;10.03;;;22.30;88.40;;;;;;5012749;28;20889;-86
2021/07/22 09:59:27;;;;;;;16.83;9.07;;;22.30;89.80;;;;;;5012849;28;20455;-86
2021/07/22 10:02:01;;;;;;;16.80;10.53;;;22.40;89.70;;;;;;5012916;28;20436;-86
2021/07/22 10:04:29;;;;;;;19.73;11.37;;;22.40;88.30;;;;;;5013181;28;20592;-86
2021/07/22 10:07:00;;;;;;;24.67;12.20;;;22.40;89.80;;;;;;5013486;28;20985;-84
2021/07/22 10:09:27;;;;;;;18.60;10.23;;;22.50;90.60;;;;;;5013671;28;20466;-84
2021/07/22 10:11:53;;;;;;;16.93;9.50;;;22.50;88.00;;;;;;5013093;28;20913;-84
2021/07/22 10:14:20;;;;;;;20.00;9.87;;;22.50;87.50;;;;;;5013422;28;20488;-83
2021/07/22 10:16:49;;;;;;;19.77;10.93;;;22.60;89.50;;;;;;5013066;28;20192;-83
2021/07/22 10:19:17;;;;;;;22.67;11.97;;;22.60;88.40;;;;;;5013199;28;20416;-83
2021/07/22 10:21:43;;;;;;;20.07;11.27;;;22.70;91.80;;;;;;5013059;28;20494;-83
2021/07/22 10:24:09;;;;;;;16.20;10.20;;;22.70;90.90;;;;;;5013251;28;20416;-83
2021/07/22 10:26:40;;;;;;;17.43;10.27;;;22.80;92.60;;;;;;5011018;28;20849;-83
2021/07/22 10:29:06;;;;;;;16.73;11.00;;;22.90;92.60;;;;;;5010031;28;20427;-82
2021/07/22 10:31:40;;;;;;;17.00;11.03;;;23.00;89.70;;;;;;5009901;28;20444;-83
2021/07/22 10:34:10;;;;;;;16.70;10.27;;;23.00;88.30;;;;;;5011177;28;20881;-82
2021/07/22 10:36:37;;;;;;;21.30;11.27;;;23.00;88.70;;;;;;5011138;28;20432;-83
2021/07/22 10:39:03;;;;;;;19.77;12.33;;;23.00;88.60;;;;;;5011043;28;20453;-83
2021/07/22 10:41:37;;;;;;;19.47;12.10;;;23.00;87.80;;;;;;5010742;28;21028;-83
2021/07/22 10:44:07;;;;;;;19.40;12.23;;;23.00;88.20;;;;;;5011162;28;20593;-82
2021/07/22 10:46:53;;;;;;;19.70;12.50;;;23.00;83.20;;;;;;5010992;28;20944;-82
2021/07/22 10:49:19;;;;;;;26.37;13.50;;;23.00;83.50;;;;;;5015299;28;20427;-83
2021/07/22 10:51:45;;;;;;;21.33;13.87;;;23.10;89.70;;;;;;5018344;28;20531;-83
2021/07/22 10:54:40;;;;;;;22.60;14.00;;;23.20;87.50;;;;;;5017670;28;20692;-83
2021/07/22 10:57:07;;;;;;;26.53;15.37;;;23.20;88.10;;;;;;5017249;28;20705;-83
2021/07/22 10:59:53;;;;;;;26.27;16.83;;;23.30;85.40;;;;;;5016820;28;21020;-83
2021/07/22 11:02:41;;;;;;;27.20;17.10;;;23.50;86.70;;;;;;5016838;28;21099;-83
2021/07/22 11:05:31;;;;;;;23.30;13.47;;;23.80;88.20;;;;;;5017187;28;20412;-83
2021/07/22 11:08:17;;;;;;;18.63;12.60;;;23.90;81.30;;;;;;5017319;28;20550;-82
2021/07/22 11:10:57;;;;;;;19.00;12.60;;;24.10;82.70;;;;;;5017157;28;20441;-83
2021/07/22 11:13:35;;;;;;;21.53;12.80;;;24.10;82.10;;;;;;5017306;28;20412;-83
2021/07/22 11:16:02;;;;;;;20.07;13.13;;;24.00;79.60;;;;;;5017604;28;20423;-83
2021/07/22 11:18:43;;;;;;;20.93;13.20;;;23.90;77.90;;;;;;5017365;28;20498;-83
2021/07/22 11:21:16;;;;;;;20.17;12.93;;;23.90;77.80;;;;;;5017075;28;20806;-83
2021/07/22 11:23:55;;;;;;;20.83;12.63;;;23.90;79.40;;;;;;5017652;28;20416;-83
2021/07/22 11:26:42;;;;;;;20.80;12.97;;;23.80;78.10;;;;;;5016988;28;20506;-84
2021/07/22 11:29:09;;;;;;;18.77;11.47;;;23.80;79.80;;;;;;5017136;28;20420;-83
2021/07/22 11:31:48;;;;;;;17.60;11.90;;;23.90;77.80;;;;;;5017130;28;20463;-83
2021/07/22 11:34:16;;;;;;;18.50;10.03;;;24.10;77.40;;;;;;5017175;28;20419;-83
2021/07/22 11:36:41;;;;;;;19.47;12.27;;;24.30;78.30;;;;;;5017531;28;20412;-83
2021/07/22 11:39:07;;;;;;;18.03;11.00;;;24.50;77.00;;;;;;5017310;28;20416;-82
2021/07/22 11:41:33;;;;;;;21.60;12.30;;;24.70;77.90;;;;;;5017542;28;20197;-82
2021/07/22 11:44:01;;;;;;;20.73;12.80;;;24.80;76.60;;;;;;5017331;28;20272;-83
2021/07/22 11:46:38;;;;;;;21.20;12.53;;;25.00;76.30;;;;;;5017036;28;20460;-83
2021/07/22 11:49:12;;;;;;;19.80;11.60;;;25.10;76.70;;;;;;5017145;28;20415;-83
2021/07/22 11:51:39;;;;;;;17.43;11.10;;;25.20;74.30;;;;;;5017392;28;20480;-82
2021/07/22 11:54:05;;;;;;;18.47;11.00;;;25.20;74.70;;;;;;5017185;28;20415;-83
2021/07/22 11:56:32;;;;;;;21.67;13.23;;;25.20;76.40;;;;;;5016138;28;20474;-83
2021/07/22 11:58:58;;;;;;;18.67;11.47;;;25.40;76.40;;;;;;5017062;28;20428;-83
2021/07/22 12:01:24;;;;;;;16.20;11.07;;;25.40;75.80;;;;;;5013495;28;20447;-82
2021/07/22 12:03:50;;;;;;;19.70;12.13;;;25.40;76.50;;;;;;5014250;28;20792;-83
2021/07/22 12:06:23;;;;;;;16.40;11.00;;;25.50;74.80;;;;;;5013893;28;20616;-82
2021/07/22 12:09:08;;;;;;;20.27;11.73;;;25.60;76.30;;;;;;5013699;28;20197;-83
2021/07/22 12:11:58;;;;;;;18.00;11.43;;;25.80;78.20;;;;;;5013384;28;20936;-83
2021/07/22 12:14:25;;;;;;;21.07;11.17;;;26.10;79.00;;;;;;5013485;28;20427;-83
2021/07/22 12:16:58;;;;;;;21.03;11.87;;;26.30;78.50;;;;;;5013599;28;20420;-83
2021/07/22 12:19:29;;;;;;;21.17;12.30;;;26.40;77.60;;;;;;5013247;28;20408;-83
2021/07/22 12:22:24;;;;;;;17.53;11.70;;;26.50;79.00;;;;;;5013291;28;20685;-83
2021/07/22 12:25:11;;;;;;;19.10;11.83;;;26.60;79.60;;;;;;5014809;28;20473;-83
2021/07/22 12:27:39;;;;;;;17.40;10.97;;;26.80;77.40;;;;;;5013007;28;20463;-84
2021/07/22 12:30:25;;;;;;;17.90;11.87;;;26.90;76.90;;;;;;5013515;28;20408;-82